Lop Buri, Thailand

1:11 AM ICT on August 25, 2016 (GMT +0700)
Bangkok International | | Change Station

Elev 13 ft 13.92 °N, 100.61 °E | Updated 11 minutes ago

Light Rain
Light Rain
77 °F
Feels Like 77 °F
N
5
Wind Variable Wind from ESE

Today
High -- | Low -- °F
--% Chance of Precip.
Yesterday
High -- | Low -- °F
Precip. -- in
Pressure 29.68 in
Visibility 5.6 miles
Clouds Few 2000 ft
Scattered Clouds 3500 ft
Mostly Cloudy 10000 ft
Dew Point 77 °F
Humidity 100%
Rainfall 0.00 in
Snow Depth Not available.
6:04 AM 6:34 PM
Waning Gibbous, 55% visible
METAR VTBD 241800Z 11004KT 9000 -RA FEW020 SCT035 BKN100 25/25 Q1005 NOSIG
Pressure 29.68 in
Visibility 5.6 miles
Clouds Few 2000 ft
Scattered Clouds 3500 ft
Mostly Cloudy 10000 ft
Dew Point 77 °F
Humidity 100%
Rainfall 0.00 in
Snow Depth Not available.
6:04 AM 6:34 PM
Waning Gibbous, 55% visible
METAR VTBD 241800Z 11004KT 9000 -RA FEW020 SCT035 BKN100 25/25 Q1005 NOSIG

10-Day Weather Forecast

No radar image for this location.
×

Almanac

Astronomy

Aug. 25, 2016 Rise Set
Actual Time
Civil Twilight
Nautical Twilight
Astronomical Twilight
Moon
Length of Visible Light
Length of Day
Tomorrow will be .
, % of the Moon is Illuminated

Today's Extremes

Country Highs Country Lows

Community

WunderPhotos

Upload Photos

1,934,664 photos uploaded!

WunderBlog® & News

Nearby

Air Quality

  Air Quality AQ Index Pollutant
Not available.

Snow Depth

Station Depth Elevation

Earthquake Activity

City Distance Mag. Time & Date
Minimum magnitude displayed is 2.5.

Coastal Water Temperatures

Place Temperature

Stations

Nearby Weather Stations

Station Location Temp. Windchill Dew Point Humidity Wind Precip. Elev Updated Type